Time;durP1;ratioP1;P1;durP2;ratioP2;P2;SDS_P1;SDS_P2;PMS_P1;PMS_P2;Temp;Humidity;BMP_temperature;BMP_pressure;BME280_temperature;BME280_humidity;BME280_pressure;Samples;Min_cycle;Max_cycle;Signal;HPM_P1;HPM_P2
2022/03/30 00:02:18;;;;;;;72.10;40.00;;;;;;;5.76;77.79;98349.60;108589;1284;22436;-60
2022/03/30 00:04:48;;;;;;;71.20;39.60;;;;;;;5.75;77.72;98354.36;108494;1284;137253;-60
2022/03/30 00:07:17;;;;;;;82.10;42.70;;;;;;;5.78;78.08;98353.77;108660;1284;22392;-60
2022/03/30 00:09:45;;;;;;;96.70;51.30;;;;;;;5.81;78.73;98354.23;108606;1284;22451;-60
2022/03/30 00:12:13;;;;;;;90.00;47.30;;;;;;;5.86;79.03;98356.34;108500;1284;137885;-60
2022/03/30 00:14:42;;;;;;;86.40;43.60;;;;;;;5.91;79.52;98354.26;108644;1283;22498;-60
2022/03/30 00:17:10;;;;;;;74.00;38.10;;;;;;;5.95;79.71;98354.28;108516;1283;139495;-60
2022/03/30 00:19:38;;;;;;;69.40;38.40;;;;;;;5.99;79.71;98354.71;108620;1284;22489;-60
2022/03/30 00:22:07;;;;;;;61.80;34.90;;;;;;;6.03;79.68;98353.08;108549;1283;138182;-60
2022/03/30 00:24:51;;;;;;;60.00;32.20;;;;;;;6.09;79.81;98353.64;108623;1284;22461;-60
2022/03/30 00:27:20;;;;;;;53.60;30.70;;;;;;;6.13;79.93;98354.94;108622;1283;23520;-61
2022/03/30 00:29:49;;;;;;;57.00;33.20;;;;;;;6.19;79.62;98353.85;108270;1286;138244;-60
2022/03/30 00:32:18;;;;;;;66.90;35.70;;;;;;;6.24;79.71;98354.21;108593;1284;22547;-60
2022/03/30 00:34:46;;;;;;;64.90;36.40;;;;;;;6.27;79.49;98350.40;108217;1286;137930;-61
2022/03/30 00:37:15;;;;;;;62.60;33.60;;;;;;;6.30;79.37;98353.98;108586;1284;23585;-63
2022/03/30 00:39:43;;;;;;;64.10;36.60;;;;;;;6.29;79.15;98350.58;108455;1285;22539;-63
2022/03/30 00:42:15;;;;;;;69.00;37.30;;;;;;;6.27;78.91;98348.61;108525;1284;138803;-62
2022/03/30 00:44:43;;;;;;;63.70;36.40;;;;;;;6.24;78.58;98343.98;108613;1284;22483;-62
2022/03/30 00:47:16;;;;;;;64.00;37.30;;;;;;;6.21;79.00;98346.77;108515;1283;137304;-62
2022/03/30 00:49:44;;;;;;;56.40;33.90;;;;;;;6.21;78.98;98343.69;108553;1284;22612;-63
2022/03/30 00:52:13;;;;;;;63.60;35.60;;;;;;;6.24;79.25;98347.98;108463;1283;139610;-62
2022/03/30 00:54:45;;;;;;;68.30;35.30;;;;;;;6.25;79.29;98347.08;108623;1284;23657;-63
2022/03/30 00:57:14;;;;;;;72.60;40.60;;;;;;;6.27;79.09;98350.61;108606;1283;22464;-63
2022/03/30 00:59:46;;;;;;;72.70;36.60;;;;;;;6.29;79.22;98340.89;108481;1284;139971;-63
2022/03/30 01:02:15;;;;;;;66.50;33.90;;;;;;;6.31;79.44;98328.31;108362;1285;22445;-63
2022/03/30 01:04:45;;;;;;;55.70;31.40;;;;;;;6.35;79.44;98324.97;108249;1283;138221;-63
2022/03/30 01:07:14;;;;;;;59.30;32.50;;;;;;;6.38;79.12;98332.23;108553;1284;22292;-62
2022/03/30 01:09:42;;;;;;;67.50;37.30;;;;;;;6.42;79.03;98335.95;108443;1286;22498;-63
2022/03/30 01:12:12;;;;;;;68.40;37.70;;;;;;;6.45;78.52;98334.89;108411;1284;138300;-66
2022/03/30 01:14:47;;;;;;;42.40;21.90;;;;;;;6.46;78.81;98328.95;108524;1284;22505;-63
2022/03/30 01:17:15;;;;;;;31.30;17.30;;;;;;;6.46;77.61;98321.77;104600;1284;137965;-61
2022/03/30 01:19:44;;;;;;;33.60;18.90;;;;;;;6.52;76.16;98326.00;104884;1277;23971;-60
2022/03/30 01:22:13;;;;;;;45.00;23.50;;;;;;;6.58;75.71;98333.80;104774;1277;138490;-60
2022/03/30 01:24:49;;;;;;;44.20;26.50;;;;;;;6.66;75.09;98341.08;109313;1276;22438;-60
2022/03/30 01:27:18;;;;;;;42.10;24.00;;;;;;;6.71;75.35;98342.48;109299;1276;23603;-60
2022/03/30 01:32:34;;;;;;;39.90;21.50;;;;;;;6.80;74.92;98339.70;109282;1276;22454;-60
2022/03/30 01:35:04;;;;;;;34.70;19.80;;;;;;;6.85;74.96;98335.79;108921;1277;139864;-60
2022/03/30 01:37:32;;;;;;;36.60;20.70;;;;;;;6.91;74.35;98332.46;109346;1276;23445;-60
2022/03/30 01:40:03;;;;;;;33.10;20.30;;;;;;;6.97;74.11;98332.27;109242;1276;138874;-60
2022/03/30 01:42:31;;;;;;;38.60;20.50;;;;;;;7.02;73.62;98333.16;109364;1276;23162;-60
2022/03/30 01:45:00;;;;;;;31.40;19.60;;;;;;;7.05;73.13;98337.36;109262;1277;23141;-61
2022/03/30 01:47:29;;;;;;;36.30;22.10;;;;;;;7.08;73.18;98334.73;109238;1276;138539;-61
2022/03/30 01:49:57;;;;;;;38.70;23.60;;;;;;;7.12;73.22;98335.80;109347;1276;22313;-60
2022/03/30 01:52:25;;;;;;;39.60;24.60;;;;;;;7.15;73.54;98339.29;109219;1276;139530;-60
2022/03/30 01:54:54;;;;;;;48.50;26.00;;;;;;;7.15;73.79;98338.58;109348;1276;22515;-60
2022/03/30 01:57:23;;;;;;;48.60;25.90;;;;;;;7.15;73.98;98332.95;109302;1276;23340;-60
2022/03/30 01:59:51;;;;;;;41.50;24.80;;;;;;;7.15;73.93;98327.63;109270;1276;137979;-60
2022/03/30 02:02:19;;;;;;;36.20;22.30;;;;;;;7.14;73.80;98320.80;109212;1277;23737;-60
2022/03/30 02:04:48;;;;;;;43.50;22.80;;;;;;;7.13;73.42;98325.13;109219;1276;139498;-60
2022/03/30 02:07:20;;;;;;;37.50;21.70;;;;;;;7.12;73.91;98326.70;109318;1276;22607;-60
2022/03/30 02:10:08;;;;;;;40.60;23.50;;;;;;;7.12;73.92;98324.36;109154;1277;139368;-60
2022/03/30 02:12:38;;;;;;;40.50;23.40;;;;;;;7.12;74.03;98325.13;109318;1276;22484;-60
2022/03/30 02:15:25;;;;;;;42.40;24.40;;;;;;;7.09;74.00;98325.48;109332;1277;22436;-61
2022/03/30 02:17:56;;;;;;;46.70;28.60;;;;;;;7.06;74.05;98330.20;109222;1276;137578;-60
2022/03/30 02:20:29;;;;;;;50.10;28.20;;;;;;;7.02;74.34;98327.86;109289;1276;22445;-60
2022/03/30 02:22:58;;;;;;;54.50;30.40;;;;;;;7.01;74.44;98317.61;109212;1276;138613;-60
2022/03/30 02:25:27;;;;;;;46.20;28.30;;;;;;;6.99;74.55;98306.71;109288;1276;22239;-60
2022/03/30 02:27:55;;;;;;;46.10;25.30;;;;;;;6.96;74.41;98302.73;109221;1276;138528;-60
2022/03/30 02:30:23;;;;;;;48.00;23.50;;;;;;;6.92;74.02;98305.61;109313;1276;23157;-60
2022/03/30 02:32:52;;;;;;;37.80;23.60;;;;;;;6.90;74.19;98316.42;109328;1276;22383;-60
2022/03/30 02:35:20;;;;;;;40.10;22.30;;;;;;;6.89;74.15;98314.91;109272;1277;138266;-60
2022/03/30 02:37:54;;;;;;;35.90;21.70;;;;;;;6.90;74.12;98307.98;109357;1276;22464;-60
2022/03/30 02:40:23;;;;;;;34.10;18.00;;;;;;;6.90;74.19;98301.44;109190;1277;139651;-61
2022/03/30 02:42:51;;;;;;;33.50;18.10;;;;;;;6.93;72.86;98299.70;109274;1277;23229;-60
2022/03/30 02:45:19;;;;;;;30.60;16.70;;;;;;;6.98;72.08;98299.08;109304;1276;23209;-61
2022/03/30 02:50:35;;;;;;;33.10;20.70;;;;;;;7.06;72.07;98296.84;109162;1277;22428;-60
2022/03/30 02:53:03;;;;;;;31.20;20.00;;;;;;;7.08;71.75;98293.79;109198;1277;137790;-60
2022/03/30 02:55:32;;;;;;;35.00;20.60;;;;;;;7.09;71.72;98292.29;109187;1277;22249;-60
2022/03/30 02:58:00;;;;;;;36.50;21.20;;;;;;;7.08;72.18;98294.77;109194;1277;138050;-60
2022/03/30 03:00:28;;;;;;;36.40;18.90;;;;;;;7.08;71.99;98297.91;109332;1276;22421;-60
2022/03/30 03:02:57;;;;;;;28.70;17.40;;;;;;;7.06;72.37;98295.91;109304;1276;23199;-60
2022/03/30 03:05:27;;;;;;;29.90;17.00;;;;;;;7.04;71.94;98289.96;109180;1277;138904;-60
2022/03/30 03:07:56;;;;;;;30.60;16.10;;;;;;;7.04;71.50;98287.84;109327;1276;22626;-60
2022/03/30 03:10:25;;;;;;;29.60;16.60;;;;;;;7.06;71.20;98286.60;109166;1277;138657;-60
2022/03/30 03:12:54;;;;;;;24.30;15.90;;;;;;;7.07;71.17;98289.67;109286;1276;22577;-60
2022/03/30 03:15:24;;;;;;;26.80;16.20;;;;;;;7.06;70.98;98291.04;109294;1276;22425;-60
2022/03/30 03:17:52;;;;;;;36.90;19.50;;;;;;;7.03;70.55;98291.73;109169;1277;139410;-60
2022/03/30 03:20:21;;;;;;;30.20;17.70;;;;;;;7.01;70.57;98290.98;109293;1276;22218;-61
2022/03/30 03:22:49;;;;;;;45.80;18.20;;;;;;;7.02;70.56;98290.11;109204;1277;138634;-60
2022/03/30 03:25:18;;;;;;;35.90;19.50;;;;;;;7.03;70.75;98288.98;109320;1276;22427;-60
2022/03/30 03:27:47;;;;;;;28.00;18.20;;;;;;;7.02;70.84;98287.67;109353;1275;22489;-60
2022/03/30 03:30:15;;;;;;;30.70;17.60;;;;;;;6.99;70.52;98290.20;109257;1277;137776;-60
2022/03/30 03:32:43;;;;;;;32.60;17.60;;;;;;;6.96;70.43;98294.23;109337;1276;22502;-60
2022/03/30 03:35:13;;;;;;;32.80;19.80;;;;;;;6.93;70.88;98303.33;109216;1276;138393;-60
2022/03/30 03:37:42;;;;;;;40.90;22.90;;;;;;;6.87;70.77;98307.70;109336;1276;22427;-60
2022/03/30 03:40:10;;;;;;;40.60;22.70;;;;;;;6.78;71.43;98309.33;109235;1276;139760;-60
2022/03/30 03:42:38;;;;;;;46.20;23.10;;;;;;;6.69;72.15;98313.23;109344;1276;23461;-60
2022/03/30 03:45:07;;;;;;;35.70;21.00;;;;;;;6.63;72.68;98318.29;109362;1276;22432;-60
2022/03/30 03:47:36;;;;;;;41.40;21.90;;;;;;;6.59;72.98;98322.86;109195;1276;139276;-60
2022/03/30 03:50:04;;;;;;;33.60;21.70;;;;;;;6.54;73.41;98323.64;109304;1277;22940;-60
2022/03/30 03:52:33;;;;;;;34.00;19.30;;;;;;;6.53;73.32;98327.09;109224;1276;139397;-60
2022/03/30 03:55:03;;;;;;;31.30;19.40;;;;;;;6.54;73.39;98334.89;109327;1276;23499;-60
2022/03/30 03:57:40;;;;;;;33.50;20.50;;;;;;;6.58;73.31;98340.02;104872;1277;22558;-59
2022/03/30 04:00:10;;;;;;;34.10;20.40;;;;;;;6.61;73.23;98336.41;109209;1276;137472;-60
2022/03/30 04:02:43;;;;;;;31.70;19.70;;;;;;;6.64;73.70;98342.00;109288;1277;22271;-60
2022/03/30 04:05:13;;;;;;;36.60;19.40;;;;;;;6.66;73.22;98342.27;108976;1277;138305;-60
2022/03/30 04:07:43;;;;;;;31.90;20.70;;;;;;;6.68;73.34;98347.97;109329;1276;22467;-60
2022/03/30 04:10:11;;;;;;;32.00;20.10;;;;;;;6.70;73.38;98353.02;109197;1276;138558;-60
2022/03/30 04:12:45;;;;;;;34.50;20.30;;;;;;;6.71;73.38;98356.66;109344;1273;23261;-60
2022/03/30 04:15:14;;;;;;;30.30;18.80;;;;;;;6.74;73.58;98355.98;109251;1277;22436;-60
2022/03/30 04:17:46;;;;;;;32.10;20.60;;;;;;;6.78;73.23;98358.80;109185;1276;139552;-60
2022/03/30 04:20:14;;;;;;;36.00;22.20;;;;;;;6.79;73.49;98355.39;109297;1276;22564;-60
2022/03/30 04:22:55;;;;;;;36.50;22.50;;;;;;;6.81;73.43;98354.86;109233;1277;137817;-60
2022/03/30 04:25:24;;;;;;;38.60;23.90;;;;;;;6.82;73.43;98362.08;109335;1277;22561;-60
2022/03/30 04:27:52;;;;;;;34.30;23.00;;;;;;;6.82;73.56;98363.80;109310;1276;22284;-60
2022/03/30 04:30:21;;;;;;;33.50;21.70;;;;;;;6.81;73.83;98367.96;109182;1276;138322;-60
2022/03/30 04:32:49;;;;;;;36.00;24.60;;;;;;;6.79;73.87;98369.36;109298;1276;22579;-61
2022/03/30 04:35:18;;;;;;;35.90;22.40;;;;;;;6.77;74.07;98376.56;109193;1276;137367;-62
2022/03/30 04:37:46;;;;;;;36.30;21.50;;;;;;;6.76;74.37;98380.09;109310;1277;22399;-63
2022/03/30 04:40:14;;;;;;;38.20;21.60;;;;;;;6.76;74.41;98382.30;109119;1277;139898;-62
2022/03/30 04:42:44;;;;;;;34.80;21.40;;;;;;;6.75;74.52;98383.81;109311;1277;22454;-63
2022/03/30 04:45:12;;;;;;;32.00;20.60;;;;;;;6.77;74.65;98387.79;109320;1276;22524;-63
2022/03/30 04:47:40;;;;;;;33.30;21.60;;;;;;;6.80;74.93;98388.27;109187;1276;139748;-63
2022/03/30 04:50:12;;;;;;;37.10;21.50;;;;;;;6.81;75.00;98383.63;109327;1277;23109;-63
2022/03/30 04:52:41;;;;;;;33.80;22.50;;;;;;;6.86;75.23;98390.00;109250;1276;138162;-63
2022/03/30 04:55:10;;;;;;;37.00;22.40;;;;;;;6.88;75.21;98389.52;109336;1276;22624;-63
2022/03/30 04:57:40;;;;;;;34.60;22.40;;;;;;;6.90;75.26;98392.79;109320;1276;23286;-63
2022/03/30 05:00:09;;;;;;;37.80;23.30;;;;;;;6.94;74.98;98395.08;109242;1276;137833;-63
2022/03/30 05:02:38;;;;;;;40.00;23.60;;;;;;;6.97;75.39;98392.81;109344;1276;23483;-63
2022/03/30 05:05:08;;;;;;;40.60;24.40;;;;;;;7.00;75.37;98395.22;109153;1276;137979;-62
2022/03/30 05:07:39;;;;;;;43.10;26.50;;;;;;;7.03;75.68;98398.71;109326;1277;22574;-63
2022/03/30 05:10:28;;;;;;;39.40;24.10;;;;;;;7.07;75.09;98400.88;109207;1276;138959;-62
2022/03/30 05:12:59;;;;;;;36.40;23.70;;;;;;;7.11;74.91;98405.56;109161;1277;22342;-63
2022/03/30 05:15:44;;;;;;;40.60;24.90;;;;;;;7.16;75.34;98405.16;109315;1277;22435;-63
2022/03/30 05:18:12;;;;;;;52.00;32.00;;;;;;;7.20;74.84;98408.38;109010;1277;138668;-63
2022/03/30 05:20:44;;;;;;;68.40;40.50;;;;;;;7.27;74.89;98410.46;109313;1276;22440;-63
2022/03/30 05:23:13;;;;;;;70.80;44.20;;;;;;;7.32;74.96;98410.34;109490;1272;139458;-63
2022/03/30 05:25:43;;;;;;;69.50;41.00;;;;;;;7.38;74.98;98409.91;109532;1273;23050;-63
2022/03/30 05:28:11;;;;;;;63.50;39.20;;;;;;;7.44;74.61;98409.42;109410;1273;137880;-63
2022/03/30 05:30:40;;;;;;;64.10;39.60;;;;;;;7.50;74.43;98402.39;109456;1273;23289;-63
2022/03/30 05:33:09;;;;;;;59.40;37.80;;;;;;;7.56;74.02;98404.09;109531;1273;23616;-63
2022/03/30 05:35:38;;;;;;;62.10;38.20;;;;;;;7.61;73.99;98404.49;109467;1273;138842;-61
2022/03/30 05:38:07;;;;;;;63.70;38.90;;;;;;;7.66;73.86;98402.88;109564;1273;23312;-60
2022/03/30 05:40:35;;;;;;;68.50;39.90;;;;;;;7.70;73.61;98402.67;109379;1274;139362;-60
2022/03/30 05:43:04;;;;;;;65.80;36.50;;;;;;;7.76;73.69;98404.16;109567;1272;22272;-60
2022/03/30 05:45:33;;;;;;;57.30;32.60;;;;;;;7.81;73.30;98406.88;109521;1273;22449;-60
2022/03/30 05:48:01;;;;;;;57.00;34.50;;;;;;;7.86;73.05;98408.41;109497;1274;138628;-60
2022/03/30 05:50:30;;;;;;;60.40;33.60;;;;;;;7.91;72.59;98408.54;109530;1273;22448;-60
2022/03/30 05:52:58;;;;;;;45.90;28.50;;;;;;;7.97;71.85;98408.16;109460;1273;137415;-61
2022/03/30 05:55:27;;;;;;;57.10;28.80;;;;;;;8.01;71.27;98411.38;109560;1273;23487;-60
2022/03/30 05:57:55;;;;;;;45.00;26.60;;;;;;;8.04;70.40;98415.29;109555;1272;22335;-60
2022/03/30 06:00:23;;;;;;;45.20;26.40;;;;;;;8.06;69.59;98413.94;109407;1273;137819;-61
2022/03/30 06:02:52;;;;;;;51.00;26.20;;;;;;;8.09;69.54;98414.14;109544;1272;22411;-60
2022/03/30 06:05:20;;;;;;;47.90;27.80;;;;;;;8.10;68.92;98411.86;109378;1274;138121;-60
2022/03/30 06:07:48;;;;;;;47.10;27.30;;;;;;;8.11;68.58;98408.35;109574;1272;22377;-60
2022/03/30 06:10:27;;;;;;;46.80;27.90;;;;;;;8.13;68.33;98411.17;109463;1272;138754;-60
2022/03/30 06:12:56;;;;;;;49.30;30.20;;;;;;;8.15;68.39;98411.67;109582;1273;22489;-60
2022/03/30 06:15:26;;;;;;;54.70;30.70;;;;;;;8.17;68.00;98419.33;109529;1272;22443;-60
2022/03/30 06:17:55;;;;;;;56.20;31.00;;;;;;;8.20;67.85;98417.33;109445;1274;138837;-60
2022/03/30 06:20:24;;;;;;;49.50;30.50;;;;;;;8.21;67.75;98420.70;109567;1273;22424;-60
2022/03/30 06:22:53;;;;;;;52.50;30.60;;;;;;;8.23;67.63;98421.71;109400;1273;139108;-60
2022/03/30 06:25:25;;;;;;;51.30;30.00;;;;;;;8.23;67.49;98425.23;109559;1273;23285;-60
2022/03/30 06:27:53;;;;;;;52.30;31.00;;;;;;;8.22;67.29;98425.25;109578;1272;23202;-60
2022/03/30 06:30:22;;;;;;;53.50;30.90;;;;;;;8.21;67.07;98426.45;109439;1274;137135;-60
2022/03/30 06:32:51;;;;;;;51.10;30.50;;;;;;;8.20;67.38;98423.95;109571;1273;23287;-60
2022/03/30 06:35:20;;;;;;;58.30;31.60;;;;;;;8.19;67.09;98421.50;109166;1273;137647;-60
2022/03/30 06:37:48;;;;;;;43.50;26.20;;;;;;;8.19;67.00;98424.65;109511;1273;23670;-60
2022/03/30 06:40:17;;;;;;;56.00;26.30;;;;;;;8.19;66.97;98417.16;109427;1272;138595;-60
2022/03/30 06:42:48;;;;;;;42.10;26.40;;;;;;;8.19;67.11;98412.66;109454;1274;22626;-60
2022/03/30 06:45:16;;;;;;;39.70;25.80;;;;;;;8.20;67.17;98414.02;109567;1273;22431;-60
2022/03/30 06:47:44;;;;;;;48.00;27.50;;;;;;;8.22;67.23;98411.19;109466;1272;137258;-60
2022/03/30 06:50:13;;;;;;;45.10;27.00;;;;;;;8.25;67.20;98411.56;109528;1273;22460;-60
2022/03/30 06:52:42;;;;;;;49.70;29.10;;;;;;;8.28;67.04;98417.86;109482;1273;138010;-60
2022/03/30 06:55:12;;;;;;;50.90;27.20;;;;;;;8.31;67.02;98416.30;109556;1274;22318;-59
2022/03/30 06:57:41;;;;;;;48.80;29.30;;;;;;;8.33;66.98;98420.52;109471;1274;22408;-59
2022/03/30 07:00:13;;;;;;;48.40;27.40;;;;;;;8.37;67.08;98424.58;109395;1274;139043;-60
2022/03/30 07:02:42;;;;;;;54.00;31.90;;;;;;;8.39;67.05;98428.10;109569;1272;22420;-60
2022/03/30 07:05:11;;;;;;;47.40;30.80;;;;;;;8.41;67.06;98423.23;109404;1273;137820;-60
2022/03/30 07:10:28;;;;;;;52.30;31.70;;;;;;;8.45;66.88;98423.29;109445;1273;137830;-60
2022/03/30 07:12:57;;;;;;;53.60;31.90;;;;;;;8.47;66.63;98424.10;109562;1272;22236;-59
2022/03/30 07:15:25;;;;;;;54.60;31.40;;;;;;;8.48;66.56;98426.55;109030;1274;23232;-60
2022/03/30 07:17:55;;;;;;;55.80;31.10;;;;;;;8.49;66.74;98426.45;109344;1274;137790;-60
2022/03/30 07:20:30;;;;;;;56.20;32.30;;;;;;;8.50;66.80;98427.27;109501;1273;22433;-60
2022/03/30 07:23:15;;;;;;;55.40;30.50;;;;;;;8.51;66.67;98428.40;109432;1272;137876;-60
2022/03/30 07:25:43;;;;;;;53.30;32.40;;;;;;;8.54;66.72;98426.37;109585;1272;22444;-60
2022/03/30 07:28:11;;;;;;;48.90;29.70;;;;;;;8.55;66.81;98428.44;109465;1272;137982;-60
2022/03/30 07:30:39;;;;;;;51.30;30.90;;;;;;;8.58;66.75;98428.98;109547;1273;22437;-60
2022/03/30 07:33:08;;;;;;;58.80;30.50;;;;;;;8.62;66.74;98428.50;109587;1272;22429;-60
2022/03/30 07:35:39;;;;;;;52.30;30.70;;;;;;;8.66;66.82;98427.80;109428;1272;139026;-60
2022/03/30 07:38:07;;;;;;;55.80;30.60;;;;;;;8.69;66.61;98431.42;109560;1273;22402;-60
2022/03/30 07:40:38;;;;;;;54.90;31.00;;;;;;;8.74;66.29;98432.14;109464;1272;137457;-60
2022/03/30 07:43:07;;;;;;;53.50;31.30;;;;;;;8.77;66.33;98432.63;109585;1273;22252;-60
2022/03/30 07:45:40;;;;;;;52.90;31.50;;;;;;;8.81;66.40;98437.77;109451;1274;22491;-59
2022/03/30 07:48:09;;;;;;;44.70;28.60;;;;;;;8.85;66.58;98438.69;109299;1273;137712;-60
2022/03/30 07:50:38;;;;;;;42.90;29.10;;;;;;;8.90;66.35;98448.36;109547;1273;22416;-60
2022/03/30 07:53:08;;;;;;;40.20;26.00;;;;;;;8.92;65.98;98445.54;109426;1273;137711;-60
2022/03/30 07:55:39;;;;;;;37.80;24.50;;;;;;;8.94;65.83;98449.35;109581;1273;22480;-60
2022/03/30 07:58:07;;;;;;;40.10;24.40;;;;;;;8.96;65.39;98445.08;109451;1273;139343;-60
2022/03/30 08:00:36;;;;;;;45.10;28.70;;;;;;;8.96;65.05;98444.16;109571;1273;22521;-61
2022/03/30 08:03:05;;;;;;;46.60;25.90;;;;;;;8.97;65.02;98445.09;109569;1272;22431;-61
2022/03/30 08:05:35;;;;;;;41.60;26.50;;;;;;;8.97;64.64;98445.30;109455;1273;138083;-61
2022/03/30 08:08:07;;;;;;;41.20;26.00;;;;;;;8.98;64.60;98445.41;109553;1273;22449;-60
2022/03/30 08:10:46;;;;;;;43.90;28.10;;;;;;;9.00;64.64;98445.85;109440;1273;138182;-60
2022/03/30 08:13:14;;;;;;;44.70;27.80;;;;;;;9.02;64.36;98445.47;109571;1273;22504;-60
2022/03/30 08:15:43;;;;;;;45.30;29.90;;;;;;;9.05;64.28;98450.09;109598;1274;22393;-61
2022/03/30 08:18:11;;;;;;;52.30;32.60;;;;;;;9.08;64.27;98451.50;109433;1273;137451;-61
2022/03/30 08:23:27;;;;;;;54.50;32.30;;;;;;;9.16;64.33;98458.80;109443;1274;137536;-61
2022/03/30 08:25:57;;;;;;;55.00;35.60;;;;;;;9.21;64.22;98454.25;109459;1273;22294;-61
2022/03/30 08:28:27;;;;;;;47.80;32.30;;;;;;;9.25;64.18;98455.20;109445;1273;138731;-61
2022/03/30 08:30:55;;;;;;;49.60;32.70;;;;;;;9.28;63.94;98460.73;109569;1273;23567;-61
2022/03/30 08:33:26;;;;;;;51.80;33.60;;;;;;;9.31;63.91;98468.45;109531;1273;22352;-61
2022/03/30 08:35:55;;;;;;;55.00;31.20;;;;;;;9.33;63.71;98469.27;109417;1274;139045;-61
2022/03/30 08:38:23;;;;;;;45.80;29.10;;;;;;;9.34;63.61;98463.35;109500;1274;22462;-61
2022/03/30 08:40:56;;;;;;;43.60;27.60;;;;;;;9.34;63.39;98463.56;109453;1273;138162;-60
2022/03/30 08:43:27;;;;;;;43.90;28.20;;;;;;;9.34;63.64;98462.96;109565;1273;23130;-61
2022/03/30 08:45:59;;;;;;;45.00;25.60;;;;;;;9.35;63.45;98457.30;109508;1273;22495;-61
2022/03/30 08:48:28;;;;;;;40.30;25.70;;;;;;;9.38;63.40;98460.60;109439;1274;138186;-61
2022/03/30 08:50:59;;;;;;;41.40;26.30;;;;;;;9.40;63.51;98462.77;109553;1273;23528;-61
2022/03/30 08:53:28;;;;;;;38.20;25.60;;;;;;;9.42;63.57;98464.72;109442;1273;137733;-60
2022/03/30 08:55:56;;;;;;;40.20;26.10;;;;;;;9.44;63.41;98466.08;109545;1272;22437;-61
2022/03/30 08:58:25;;;;;;;41.40;25.70;;;;;;;9.45;63.20;98458.95;109140;1272;410245;-60
2022/03/30 09:02:45;;;;;;;44.40;26.10;;;;;;;9.49;63.19;98455.24;101978;1307;546492;-59
2022/03/30 09:05:24;;;;;;;42.60;27.40;;;;;;;9.47;63.37;98453.14;108399;1283;136975;-60
2022/03/30 09:08:11;;;;;;;42.90;25.20;;;;;;;9.48;63.65;98457.81;108331;1286;23148;-60
2022/03/30 09:10:56;;;;;;;38.10;24.60;;;;;;;9.49;63.57;98460.04;108226;1286;137285;-60
2022/03/30 09:13:24;;;;;;;38.90;24.80;;;;;;;9.48;63.42;98457.38;108349;1286;23466;-61
2022/03/30 09:15:53;;;;;;;33.20;22.10;;;;;;;9.47;63.54;98454.88;108191;1284;224465;-61
2022/03/30 09:18:21;;;;;;;35.40;22.40;;;;;;;9.46;63.56;98454.61;108386;1283;136861;-60
2022/03/30 09:21:09;;;;;;;;;;;;;;;9.45;63.76;98454.39;108547;1283;22461;-61
2022/03/30 09:23:46;;;;;;;34.70;22.70;;;;;;;9.44;63.75;98454.28;108408;1284;124164;-61
2022/03/30 09:26:14;;;;;;;39.40;26.50;;;;;;;9.40;63.97;98458.30;108585;1283;22845;-60
2022/03/30 09:28:43;;;;;;;51.50;28.70;;;;;;;9.35;64.40;98461.11;108184;1286;137698;-60
2022/03/30 09:31:11;;;;;;;41.40;27.20;;;;;;;9.32;64.86;98458.67;108561;1283;22490;-60
2022/03/30 09:33:40;;;;;;;39.70;24.20;;;;;;;9.31;65.26;98461.93;108386;1284;22424;-60
2022/03/30 09:36:25;;;;;;;34.70;23.00;;;;;;;9.31;65.97;98466.39;108127;1286;138882;-60
2022/03/30 09:38:54;;;;;;;32.70;23.50;;;;;;;9.30;66.20;98467.91;108358;1285;22423;-60
2022/03/30 09:41:22;;;;;;;34.90;23.50;;;;;;;9.27;66.55;98472.10;108069;1285;138729;-60
2022/03/30 09:44:03;;;;;;;36.60;23.50;;;;;;;9.25;66.79;98477.11;108390;1285;22449;-60
2022/03/30 09:46:31;;;;;;;34.20;24.40;;;;;;;9.20;66.97;98479.15;108292;1285;138354;-60
2022/03/30 09:49:01;;;;;;;38.20;25.20;;;;;;;9.15;67.26;98476.31;108401;1284;22513;-60
2022/03/30 09:51:31;;;;;;;41.70;25.40;;;;;;;9.10;67.69;98481.80;108384;1285;23415;-60
2022/03/30 09:54:00;;;;;;;40.50;25.80;;;;;;;9.02;68.14;98478.61;108585;1281;138305;-60
2022/03/30 09:56:32;;;;;;;39.60;26.90;;;;;;;8.94;68.54;98479.70;106326;1283;24139;-60
2022/03/30 09:59:24;;;;;;;38.50;25.60;;;;;;;8.88;69.25;98478.41;108502;1283;138329;-60
2022/03/30 10:02:12;;;;;;;41.90;25.60;;;;;;;8.83;69.76;98478.94;108423;1282;22272;-60
2022/03/30 10:04:41;;;;;;;45.10;27.50;;;;;;;8.79;70.01;98476.08;108499;1283;138077;-60
2022/03/30 10:07:10;;;;;;;41.90;26.00;;;;;;;8.78;70.56;98472.93;108669;1282;23181;-60
2022/03/30 10:09:42;;;;;;;42.70;27.60;;;;;;;8.80;70.98;98472.88;108656;1281;22499;-60
2022/03/30 10:12:12;;;;;;;44.10;27.90;;;;;;;8.82;71.49;98474.98;108496;1283;138784;-60
2022/03/30 10:14:46;;;;;;;44.70;26.70;;;;;;;8.84;72.08;98477.32;108803;1279;22453;-60
2022/03/30 10:17:15;;;;;;;43.70;27.20;;;;;;;8.88;72.40;98479.27;108926;1279;138319;-60
2022/03/30 10:19:46;;;;;;;43.70;27.70;;;;;;;8.90;72.95;98481.83;109006;1279;22663;-60
2022/03/30 10:22:38;;;;;;;43.70;27.20;;;;;;;8.90;73.27;98481.23;108898;1279;138360;-60
2022/03/30 10:25:48;;;;;;;47.70;29.40;;;;;;;8.89;73.35;98481.95;108863;1280;22581;-60
2022/03/30 10:28:23;;;;;;;43.30;26.50;;;;;;;8.85;73.27;98479.87;108799;1280;138069;-60
2022/03/30 10:30:53;;;;;;;36.90;24.80;;;;;;;8.83;73.42;98479.42;109024;1280;23380;-60
2022/03/30 10:33:30;;;;;;;33.50;22.20;;;;;;;8.79;73.31;98481.30;108991;1279;22455;-60
2022/03/30 10:35:59;;;;;;;31.40;22.80;;;;;;;8.76;73.23;98477.60;108904;1279;137876;-60
2022/03/30 10:38:27;;;;;;;32.50;22.50;;;;;;;8.73;73.49;98474.16;109039;1279;23098;-60
2022/03/30 10:41:06;;;;;;;33.20;21.60;;;;;;;8.71;73.83;98469.71;108939;1280;138746;-60
2022/03/30 10:43:34;;;;;;;29.50;21.20;;;;;;;8.68;74.03;98465.96;109043;1279;22273;-60
2022/03/30 10:46:02;;;;;;;30.30;20.90;;;;;;;8.66;74.16;98466.23;109049;1279;22391;-60
2022/03/30 10:48:33;;;;;;;28.50;21.70;;;;;;;8.66;74.38;98466.39;108911;1279;137170;-60
2022/03/30 10:51:07;;;;;;;32.10;22.10;;;;;;;8.67;74.70;98462.86;109031;1279;22427;-60
2022/03/30 10:53:51;;;;;;;30.50;22.80;;;;;;;8.69;75.12;98460.91;108928;1279;137286;-60
2022/03/30 10:56:22;;;;;;;33.50;22.30;;;;;;;8.71;75.39;98458.04;107008;1279;24268;-63
2022/03/30 10:58:55;;;;;;;32.50;23.00;;;;;;;8.75;75.47;98464.19;108926;1279;138852;-62
2022/03/30 11:01:34;;;;;;;33.30;22.20;;;;;;;8.76;75.64;98465.92;109015;1279;23410;-62
2022/03/30 11:04:06;;;;;;;36.30;22.80;;;;;;;8.79;75.77;98468.52;109030;1279;22426;-63
2022/03/30 11:06:36;;;;;;;33.20;21.40;;;;;;;8.82;76.03;98466.67;108801;1279;139505;-62
2022/03/30 11:09:25;;;;;;;31.20;21.50;;;;;;;8.86;76.09;98473.14;109065;1279;23600;-63
2022/03/30 11:12:12;;;;;;;30.90;20.90;;;;;;;8.91;76.28;98467.77;108890;1280;139150;-63
2022/03/30 11:14:45;;;;;;;30.20;20.80;;;;;;;8.97;76.33;98465.67;109031;1279;22535;-62
2022/03/30 11:17:33;;;;;;;29.90;21.00;;;;;;;9.01;76.38;98465.41;108916;1279;137301;-62
2022/03/30 11:20:04;;;;;;;32.90;22.50;;;;;;;9.06;76.33;98463.56;109004;1279;23832;-62
2022/03/30 11:22:36;;;;;;;31.90;22.40;;;;;;;9.08;76.32;98462.63;108928;1280;137484;-62
2022/03/30 11:25:18;;;;;;;31.40;22.80;;;;;;;9.10;76.28;98465.50;109060;1279;23171;-62
2022/03/30 11:27:58;;;;;;;41.40;29.30;;;;;;;9.13;76.07;98463.00;109051;1277;22509;-59
2022/03/30 11:30:28;;;;;;;30.70;23.20;;;;;;;9.16;75.91;98459.52;108960;1279;139343;-59
2022/03/30 11:33:01;;;;;;;34.40;24.80;;;;;;;9.21;75.75;98458.77;109028;1279;23274;-59
2022/03/30 11:35:35;;;;;;;24.70;19.00;;;;;;;9.25;75.59;98460.14;108979;1277;139555;-59
2022/03/30 11:38:04;;;;;;;29.80;19.70;;;;;;;9.30;75.37;98455.30;109195;1277;22471;-59
2022/03/30 11:40:37;;;;;;;27.70;19.40;;;;;;;9.35;75.38;98454.64;109020;1277;138862;-59
2022/03/30 11:43:06;;;;;;;28.10;20.00;;;;;;;9.40;75.28;98454.02;109163;1277;23224;-59
2022/03/30 11:45:54;;;;;;;25.90;18.50;;;;;;;9.45;75.01;98451.56;109174;1277;23471;-59